Ashton-under-Lyne, United Kingdom
Current Conditions -  °F | °C
As of 10:50 PM on Tuesday 21 Oct 2014 (Local Time) from EGCC Reporting Station
Scattered Clouds Scattered Clouds  
Wind Chill:   Ceiling: Unl
Heat Index:   Visibility: 6mi
Dew Point:   Wind: 10mph
Humidity: 87%   Direction: 300°WNW
Pressure: 30.09"   Gusts: NA
Location:  53.49°N, 2.1°W
Report Text: EGCC 212150Z AUTO 30009KT 9999 FEW022/// SCT034/// //////TCU 07/05 Q1019 RERA
Loading
Personal Weather Stations






























Interactive Weather Map
Tropical Storm Tracking
New forecast layout! Learn more

10-Day Weather Forecast

Advertisements
Track Severe Weather on mobile